Pinopolis, SC (29469)

7:07 AM EST on December 05, 2016 (GMT -0500)
Stony Landing | | Change Station

Elev 82 ft 33.19 °N, 79.99 °W | Updated 12 seconds ago

Light Drizzle
Light Drizzle
52.2 °F
Feels Like 52.2 °F
N
8.3
Wind Variable Wind from NNE
Gusts 10.7 mph

Today
High -- | Low -- °F
--% Chance of Precip.
Yesterday
High -- | Low -- °F
Precip. -- in
Pressure 29.99 in
Visibility 10.0 miles
Clouds Overcast 600 ft
Dew Point 51 °F
Humidity 97%
Rainfall 0.11 in
Snow Depth Not available.
7:09 AM 5:12 PM
Waxing Crescent, 31% visible
METAR KMKS 051155Z AUTO 34005KT 10SM -DZ OVC006 10/10 A2999 RMK AO2
Pressure 29.99 in
Visibility 10.0 miles
Clouds Overcast 600 ft
Dew Point 51 °F
Humidity 97%
Rainfall 0.11 in
Snow Depth Not available.
7:09 AM 5:12 PM
Waxing Crescent, 31% visible
METAR KMKS 051155Z AUTO 34005KT 10SM -DZ OVC006 10/10 A2999 RMK AO2

10-Day Weather Forecast

Almanac

Astronomy

Dec. 05, 2016 Rise Set
Actual Time
Civil Twilight
Nautical Twilight
Astronomical Twilight
Moon
Length of Visible Light
Length of Day
Tomorrow will be .
, % of the Moon is Illuminated

Today's Extremes

State Highs State Lows

Community

WunderPhotos

Upload Photos

1,955,779 photos uploaded!

WunderBlog® & News

Nearby

Air Quality

  Air Quality AQ Index Pollutant
Not available.

Snow Depth

Station Depth Elevation

Earthquake Activity

City Distance Mag. Time & Date
Minimum magnitude displayed is 2.5.

Coastal Water Temperatures

Place Temperature

Stations

Nearby Weather Stations

Station Location Temp. Windchill Dew Point Humidity Wind Precip. Elev Updated Type
                   

Watches & Warnings

There are currently no watches in effect.